Time;durP1;ratioP1;P1;durP2;ratioP2;P2;SDS_P1;SDS_P2;PMS_P1;PMS_P2;Temp;Humidity;BMP_temperature;BMP_pressure;BME280_temperature;BME280_humidity;BME280_pressure;Samples;Min_cycle;Max_cycle;Signal;HPM_P1;HPM_P2
2022/06/25 00:00:49;;;;;;;;;;;;;;;23.44;43.95;101565.91;2084802;28;950;-48
2022/06/25 00:01:49;;;;;;;;;;;;;;;23.46;43.35;101564.94;2084661;28;756;-49
2022/06/25 00:02:50;;;;;;;;;;;;;;;23.45;43.83;101565.88;2084685;28;839;-49
2022/06/25 00:03:50;;;;;;;;;;;;;;;23.44;43.72;101569.53;2084696;28;744;-50
2022/06/25 00:06:09;;;;;;;;;;;;;;;23.43;43.55;101573.16;2084750;28;655;-49
2022/06/25 00:07:09;;;;;;;;;;;;;;;23.42;43.78;101575.91;2084734;28;834;-49
2022/06/25 00:08:09;;;;;;;;;;;;;;;23.42;44.25;101576.78;2084089;28;1016;-48
2022/06/25 00:09:09;;;;;;;;;;;;;;;23.43;44.00;101573.16;2084633;28;962;-48
2022/06/25 00:10:09;;;;;;;;;;;;;;;23.43;44.65;101575.88;2084603;28;1033;-48
2022/06/25 00:12:31;;;;;;;;;;;;;;;23.45;44.59;101581.19;2084635;28;808;-49
2022/06/25 00:12:33;;;;;;;;;;;;;;;23.43;45.00;101581.28;2084526;28;689;-48
2022/06/25 00:13:34;;;;;;;;;;;;;;;23.41;44.77;101577.72;2084555;28;867;-50
2022/06/25 00:14:35;;;;;;;;;;;;;;;23.42;44.98;101578.59;2084569;28;834;-50
2022/06/25 00:15:36;;;;;;;;;;;;;;;23.43;45.25;101575.88;2084563;28;819;-49
2022/06/25 00:16:36;;;;;;;;;;;;;;;23.42;46.30;101579.50;2084558;28;815;-48
2022/06/25 00:17:37;;;;;;;;;;;;;;;23.43;46.42;101580.38;2084541;28;768;-48
2022/06/25 00:18:37;;;;;;;;;;;;;;;23.39;46.80;101587.72;2084456;28;1957;-50
2022/06/25 00:19:37;;;;;;;;;;;;;;;23.39;46.94;101579.59;2084568;28;748;-50
2022/06/25 00:20:37;;;;;;;;;;;;;;;23.40;46.58;101575.97;2084578;28;756;-49
2022/06/25 00:21:37;;;;;;;;;;;;;;;23.41;46.31;101583.13;2084528;28;855;-49
2022/06/25 00:22:37;;;;;;;;;;;;;;;23.41;47.35;101580.44;2084267;28;1051;-50
2022/06/25 00:23:38;;;;;;;;;;;;;;;23.38;46.66;101586.81;2084205;28;965;-50
2022/06/25 00:24:38;;;;;;;;;;;;;;;23.37;47.61;101581.47;2084503;28;750;-48
2022/06/25 00:25:38;;;;;;;;;;;;;;;23.36;46.71;101585.13;2075672;28;958;-49
2022/06/25 00:26:38;;;;;;;;;;;;;;;23.37;47.15;101585.03;2075700;28;958;-49
2022/06/25 00:27:38;;;;;;;;;;;;;;;23.36;47.73;101580.56;2084366;28;1170;-49
2022/06/25 00:28:38;;;;;;;;;;;;;;;23.33;47.74;101577.97;2084356;28;1131;-49
2022/06/25 00:29:38;;;;;;;;;;;;;;;23.29;47.64;101579.00;2084479;28;903;-49
2022/06/25 00:30:39;;;;;;;;;;;;;;;23.29;48.26;101583.53;2084586;28;958;-48
2022/06/25 00:31:39;;;;;;;;;;;;;;;23.30;47.96;101590.72;2084426;28;834;-49
2022/06/25 00:32:39;;;;;;;;;;;;;;;23.28;47.93;101584.47;2084462;28;836;-49
2022/06/25 00:33:39;;;;;;;;;;;;;;;23.28;48.08;101585.34;2084423;28;804;-49
2022/06/25 00:34:40;;;;;;;;;;;;;;;23.28;48.80;101587.19;2084413;28;914;-48
2022/06/25 00:35:40;;;;;;;;;;;;;;;23.27;48.26;101580.00;2084444;28;756;-48
2022/06/25 00:36:40;;;;;;;;;;;;;;;23.28;48.45;101593.47;2084486;28;858;-48
2022/06/25 00:37:40;;;;;;;;;;;;;;;23.25;48.63;101588.19;2083771;28;1290;-48
2022/06/25 00:38:40;;;;;;;;;;;;;;;23.26;48.48;101586.34;2084270;28;1906;-50
2022/06/25 00:39:43;;;;;;;;;;;;;;;23.23;49.35;101584.66;2084385;28;985;-48
2022/06/25 00:40:44;;;;;;;;;;;;;;;23.22;49.21;101585.53;2084397;28;865;-48
2022/06/25 00:41:44;;;;;;;;;;;;;;;23.20;49.49;101584.72;2084407;28;969;-48
2022/06/25 00:42:45;;;;;;;;;;;;;;;23.21;49.30;101586.47;2084513;28;970;-48
2022/06/25 00:43:45;;;;;;;;;;;;;;;23.17;49.14;101584.81;2084387;28;982;-48
2022/06/25 00:44:45;;;;;;;;;;;;;;;23.17;49.53;101588.38;2084360;28;970;-48
2022/06/25 00:45:45;;;;;;;;;;;;;;;23.15;49.23;101584.84;2084356;28;764;-49
2022/06/25 00:46:46;;;;;;;;;;;;;;;23.15;49.70;101587.53;2084333;28;966;-51
2022/06/25 00:47:46;;;;;;;;;;;;;;;23.14;48.84;101590.31;2084305;28;846;-49
2022/06/25 00:48:47;;;;;;;;;;;;;;;23.10;49.62;101593.13;2084286;28;776;-49
2022/06/25 00:49:47;;;;;;;;;;;;;;;23.09;49.35;101593.16;2084280;28;981;-48
2022/06/25 00:50:47;;;;;;;;;;;;;;;23.09;49.09;101594.03;2084291;28;866;-49
2022/06/25 00:51:49;;;;;;;;;;;;;;;23.09;48.70;101591.34;2084304;28;791;-48
2022/06/25 00:52:52;;;;;;;;;;;;;;;23.10;48.29;101592.22;2083765;28;1055;-50
2022/06/25 00:53:56;;;;;;;;;;;;;;;23.09;47.15;101585.94;2084259;28;804;-48
2022/06/25 00:55:04;;;;;;;;;;;;;;;23.10;47.06;101592.22;2084290;28;966;-50
2022/06/25 00:56:07;;;;;;;;;;;;;;;23.12;46.65;101589.47;2084279;28;1025;-49
2022/06/25 00:57:08;;;;;;;;;;;;;;;23.12;46.53;101594.88;2084314;28;981;-49
2022/06/25 00:58:09;;;;;;;;;;;;;;;23.10;45.93;101593.13;2084146;28;1893;-50
2022/06/25 00:59:09;;;;;;;;;;;;;;;23.12;45.58;101589.47;2083480;28;828;-48
2022/06/25 01:00:11;;;;;;;;;;;;;;;23.10;45.50;101590.41;2084235;28;906;-50
2022/06/25 01:01:12;;;;;;;;;;;;;;;23.10;44.97;101594.91;2084188;28;906;-49
2022/06/25 01:02:12;;;;;;;;;;;;;;;23.11;44.86;101591.28;2084236;28;828;-49
2022/06/25 01:03:13;;;;;;;;;;;;;;;23.10;43.84;101594.91;2084193;28;970;-49
2022/06/25 01:04:13;;;;;;;;;;;;;;;23.13;43.69;101593.94;2084214;28;819;-48
2022/06/25 01:05:14;;;;;;;;;;;;;;;23.13;43.59;101597.53;2075329;28;1415;-48
2022/06/25 01:06:15;;;;;;;;;;;;;;;23.14;43.96;101588.47;2075510;28;918;-51
2022/06/25 01:07:15;;;;;;;;;;;;;;;23.14;43.69;101587.59;2084204;28;962;-48
2022/06/25 01:08:16;;;;;;;;;;;;;;;23.13;43.38;101592.13;2083591;28;3078;-48
2022/06/25 01:09:17;;;;;;;;;;;;;;;23.14;42.99;101587.59;2075354;28;1017;-49
2022/06/25 01:10:17;;;;;;;;;;;;;;;23.13;43.60;101592.13;2075425;28;1042;-48
2022/06/25 01:11:17;;;;;;;;;;;;;;;23.14;42.88;101593.00;2084080;28;838;-48
2022/06/25 01:12:17;;;;;;;;;;;;;;;23.15;43.47;101592.09;2084144;28;914;-49
2022/06/25 01:13:21;;;;;;;;;;;;;;;23.17;42.81;101592.91;2084101;28;974;-49
2022/06/25 01:14:21;;;;;;;;;;;;;;;23.15;43.40;101595.66;2084138;28;832;-49
2022/06/25 01:15:21;;;;;;;;;;;;;;;23.17;43.04;101595.63;2084244;28;775;-48
2022/06/25 01:16:22;;;;;;;;;;;;;;;23.16;43.33;101601.97;2084120;28;815;-49
2022/06/25 01:17:22;;;;;;;;;;;;;;;23.14;43.40;101593.88;2084164;28;792;-49
2022/06/25 01:18:22;;;;;;;;;;;;;;;23.16;43.86;101594.72;2083988;28;1890;-50
2022/06/25 01:19:22;;;;;;;;;;;;;;;23.16;43.75;101600.13;2084099;28;824;-48
2022/06/25 01:20:25;;;;;;;;;;;;;;;23.16;43.31;101605.53;2084100;28;879;-49
2022/06/25 01:21:26;;;;;;;;;;;;;;;23.15;43.45;101606.47;2084067;28;894;-48
2022/06/25 01:22:26;;;;;;;;;;;;;;;23.14;43.62;101607.41;2083568;28;1054;-50
2022/06/25 01:23:27;;;;;;;;;;;;;;;23.16;43.91;101596.56;2084077;28;808;-48
2022/06/25 01:24:27;;;;;;;;;;;;;;;23.17;44.33;101598.31;2084087;28;997;-48
2022/06/25 01:25:34;;;;;;;;;;;;;;;23.16;44.30;101602.81;2084012;28;1021;-48
2022/06/25 01:26:35;;;;;;;;;;;;;;;23.14;44.60;101604.69;2084075;28;863;-49
2022/06/25 01:27:36;;;;;;;;;;;;;;;23.15;44.76;101602.91;2084026;28;862;-49
2022/06/25 01:28:36;;;;;;;;;;;;;;;23.14;44.38;101601.13;2083776;28;1190;-50
2022/06/25 01:29:36;;;;;;;;;;;;;;;23.17;44.20;101601.03;2084008;28;1055;-48
2022/06/25 01:30:37;;;;;;;;;;;;;;;23.17;44.00;101598.31;2083991;28;985;-49
2022/06/25 01:31:37;;;;;;;;;;;;;;;23.15;44.93;101603.75;2075190;28;819;-48
2022/06/25 01:32:37;;;;;;;;;;;;;;;23.17;44.26;101609.13;2075227;28;835;-48
2022/06/25 01:33:37;;;;;;;;;;;;;;;23.15;44.93;101598.34;2083899;28;906;-48
2022/06/25 01:34:38;;;;;;;;;;;;;;;23.17;44.92;101609.13;2083952;28;1025;-49
2022/06/25 01:35:38;;;;;;;;;;;;;;;23.15;44.68;101595.66;2083978;28;788;-48
2022/06/25 01:36:38;;;;;;;;;;;;;;;23.16;44.73;101605.53;2083950;28;867;-49
2022/06/25 01:37:38;;;;;;;;;;;;;;;23.17;45.31;101607.31;2083374;28;1164;-48
2022/06/25 01:38:38;;;;;;;;;;;;;;;23.16;45.02;101597.41;2083859;28;1981;-49
2022/06/25 01:39:38;;;;;;;;;;;;;;;23.16;44.92;101602.81;2083911;28;982;-49
2022/06/25 01:40:38;;;;;;;;;;;;;;;23.16;45.17;101600.13;2083915;28;1057;-48
2022/06/25 01:41:39;;;;;;;;;;;;;;;23.17;45.56;101607.31;2083940;28;760;-49
2022/06/25 01:43:58;;;;;;;;;;;;;;;23.16;45.55;101604.66;2084097;28;662;-48
2022/06/25 01:44:58;;;;;;;;;;;;;;;23.14;45.65;101604.69;2083899;28;931;-48
2022/06/25 01:45:58;;;;;;;;;;;;;;;23.15;45.68;101605.59;2083879;28;919;-48
2022/06/25 01:46:58;;;;;;;;;;;;;;;23.16;45.10;101610.94;2083896;28;830;-49
2022/06/25 01:47:59;;;;;;;;;;;;;;;23.16;45.73;101601.97;2083853;28;907;-49
2022/06/25 01:49:00;;;;;;;;;;;;;;;23.15;45.75;101611.88;2083840;28;831;-49
2022/06/25 01:50:00;;;;;;;;;;;;;;;23.14;45.46;101606.53;2083784;28;851;-49
2022/06/25 01:51:01;;;;;;;;;;;;;;;23.14;45.86;101612.81;2083823;28;970;-49
2022/06/25 01:52:01;;;;;;;;;;;;;;;23.16;45.84;101604.66;2083811;28;796;-48
2022/06/25 01:53:01;;;;;;;;;;;;;;;23.17;45.59;101603.72;2083301;28;1341;-49
2022/06/25 01:54:01;;;;;;;;;;;;;;;23.16;45.31;101608.22;2083780;28;828;-50
2022/06/25 01:55:02;;;;;;;;;;;;;;;23.15;45.52;101611.00;2083819;28;1033;-48
2022/06/25 01:56:03;;;;;;;;;;;;;;;23.13;46.03;101608.31;2083787;28;800;-49
2022/06/25 01:57:03;;;;;;;;;;;;;;;23.13;46.05;101611.03;2083798;28;803;-49
2022/06/25 01:58:03;;;;;;;;;;;;;;;23.13;45.83;101616.44;2083826;28;966;-48
2022/06/25 01:59:03;;;;;;;;;;;;;;;23.13;45.41;101611.03;2074865;28;1937;-48
2022/06/25 02:00:07;;;;;;;;;;;;;;;23.15;45.74;101611.00;2075024;28;1057;-49
2022/06/25 02:01:07;;;;;;;;;;;;;;;23.15;46.00;101619.97;2083570;28;1980;-49
2022/06/25 02:02:08;;;;;;;;;;;;;;;23.15;45.72;101614.56;2083751;28;854;-49
2022/06/25 02:03:08;;;;;;;;;;;;;;;23.14;45.03;101618.22;2083739;28;859;-48
2022/06/25 02:04:08;;;;;;;;;;;;;;;23.14;45.16;101618.22;2083740;28;819;-49
2022/06/25 02:05:09;;;;;;;;;;;;;;;23.12;44.76;101622.78;2083696;28;974;-50
2022/06/25 02:06:09;;;;;;;;;;;;;;;23.10;44.76;101619.25;2083632;28;1683;-49
2022/06/25 02:07:09;;;;;;;;;;;;;;;23.10;44.29;101620.13;2083691;28;1021;-50
2022/06/25 02:08:10;;;;;;;;;;;;;;;23.09;44.36;101618.38;2083192;28;977;-49
2022/06/25 02:09:11;;;;;;;;;;;;;;;23.09;43.96;101618.38;2083667;28;847;-50
2022/06/25 02:10:11;;;;;;;;;;;;;;;23.08;43.98;101623.81;2083327;28;982;-49
2022/06/25 02:11:12;;;;;;;;;;;;;;;23.07;43.74;101622.94;2082978;28;978;-48
2022/06/25 02:12:12;;;;;;;;;;;;;;;23.07;43.91;101625.63;2083684;28;811;-50
2022/06/25 02:13:12;;;;;;;;;;;;;;;23.07;42.92;101619.34;2083688;28;922;-48
2022/06/25 02:14:12;;;;;;;;;;;;;;;23.07;43.62;101622.03;2074797;28;1440;-48
2022/06/25 02:15:13;;;;;;;;;;;;;;;23.06;42.88;101622.97;2074895;28;930;-48
2022/06/25 02:16:14;;;;;;;;;;;;;;;23.06;43.09;101625.66;2083598;28;792;-48
2022/06/25 02:17:14;;;;;;;;;;;;;;;23.04;43.17;101625.72;2083653;28;842;-48
2022/06/25 02:18:15;;;;;;;;;;;;;;;23.04;42.74;101625.72;2083563;28;1914;-48
2022/06/25 02:19:15;;;;;;;;;;;;;;;23.05;43.44;101623.91;2074783;28;966;-49
2022/06/25 02:20:16;;;;;;;;;;;;;;;23.05;43.36;101634.72;2074847;28;973;-50
2022/06/25 02:21:16;;;;;;;;;;;;;;;23.05;43.29;101632.00;2083597;28;831;-48
2022/06/25 02:22:17;;;;;;;;;;;;;;;23.05;43.36;101635.59;2083571;28;860;-48
2022/06/25 02:23:18;;;;;;;;;;;;;;;23.05;43.50;101635.59;2083031;28;1040;-48
2022/06/25 02:24:18;;;;;;;;;;;;;;;23.04;42.97;101638.34;2083591;28;1048;-49
2022/06/25 02:25:18;;;;;;;;;;;;;;;23.04;43.19;101639.25;2083514;28;989;-48
2022/06/25 02:26:18;;;;;;;;;;;;;;;23.04;42.80;101641.03;2083515;28;986;-49
2022/06/25 02:27:19;;;;;;;;;;;;;;;23.03;43.69;101640.19;2083568;28;981;-48
2022/06/25 02:28:19;;;;;;;;;;;;;;;23.04;43.87;101646.44;2083767;28;689;-49
2022/06/25 02:29:19;;;;;;;;;;;;;;;23.04;43.28;101639.25;2083400;28;1200;-49
2022/06/25 02:30:19;;;;;;;;;;;;;;;23.03;43.94;101640.19;2083544;28;910;-48
2022/06/25 02:31:19;;;;;;;;;;;;;;;23.03;43.45;101639.28;2083560;28;767;-49
2022/06/25 02:32:19;;;;;;;;;;;;;;;23.03;44.23;101642.88;2083511;28;740;-48
2022/06/25 02:33:20;;;;;;;;;;;;;;;23.04;43.84;101641.03;2083469;28;990;-48
2022/06/25 02:34:20;;;;;;;;;;;;;;;23.03;44.54;101639.28;2083491;28;1037;-50
2022/06/25 02:35:20;;;;;;;;;;;;;;;23.04;44.31;101643.75;2083461;28;1021;-50
2022/06/25 02:36:20;;;;;;;;;;;;;;;23.04;44.30;101641.03;2083459;28;966;-50
2022/06/25 02:37:20;;;;;;;;;;;;;;;23.02;44.00;101635.69;2074364;28;1280;-51
2022/06/25 02:38:21;;;;;;;;;;;;;;;23.03;44.48;101636.56;2074151;28;1914;-48
2022/06/25 02:39:21;;;;;;;;;;;;;;;23.03;44.10;101633.88;2083323;28;993;-48
2022/06/25 02:40:21;;;;;;;;;;;;;;;23.03;44.69;101636.56;2083419;28;986;-49
2022/06/25 02:41:21;;;;;;;;;;;;;;;23.03;44.45;101639.28;2083460;28;966;-49
2022/06/25 02:42:21;;;;;;;;;;;;;;;23.02;44.60;101638.41;2083436;28;752;-50
2022/06/25 02:43:22;;;;;;;;;;;;;;;23.02;44.95;101637.50;2083432;28;784;-49
2022/06/25 02:44:22;;;;;;;;;;;;;;;23.02;44.76;101637.50;2074611;28;1137;-49
2022/06/25 02:45:22;;;;;;;;;;;;;;;23.01;44.84;101642.03;2074722;28;820;-50
2022/06/25 02:46:22;;;;;;;;;;;;;;;23.02;45.36;101638.41;2083392;28;842;-48
2022/06/25 02:47:22;;;;;;;;;;;;;;;23.03;45.13;101645.56;2083421;28;903;-49
2022/06/25 02:48:23;;;;;;;;;;;;;;;23.04;45.25;101644.66;2083379;28;979;-49
2022/06/25 02:49:23;;;;;;;;;;;;;;;23.03;44.67;101644.69;2083393;28;808;-49
2022/06/25 02:50:23;;;;;;;;;;;;;;;23.02;44.94;101651.00;2083363;28;974;-48
2022/06/25 02:51:24;;;;;;;;;;;;;;;23.01;45.32;101647.44;2083385;28;792;-49
2022/06/25 02:52:24;;;;;;;;;;;;;;;23.01;45.81;101638.44;2083212;28;1036;-52
2022/06/25 02:53:24;;;;;;;;;;;;;;;23.01;44.98;101639.34;2082972;28;1040;-49
2022/06/25 02:54:24;;;;;;;;;;;;;;;23.01;45.16;101642.03;2083344;28;1010;-49
2022/06/25 02:59:21;;;;;;;;;;;;;;;23.01;46.56;101641.13;2083392;28;669;-48
2022/06/25 03:00:21;;;;;;;;;;;;;;;23.02;46.31;101659.13;2083327;28;851;-49
2022/06/25 03:01:22;;;;;;;;;;;;;;;23.03;47.01;101644.69;2083313;28;907;-49
2022/06/25 03:02:22;;;;;;;;;;;;;;;23.02;47.39;101646.50;2083404;28;799;-50
2022/06/25 03:03:22;;;;;;;;;;;;;;;23.01;47.85;101654.66;2083294;28;855;-50
2022/06/25 03:04:24;;;;;;;;;;;;;;;23.01;47.27;101657.34;2083328;28;1222;-48
2022/06/25 03:05:24;;;;;;;;;;;;;;;23.01;48.24;101660.97;2083272;28;802;-49
2022/06/25 03:06:24;;;;;;;;;;;;;;;23.01;48.03;101647.44;2083286;28;855;-50
2022/06/25 03:07:25;;;;;;;;;;;;;;;23.02;48.45;101662.72;2083173;28;989;-48
2022/06/25 03:08:25;;;;;;;;;;;;;;;23.02;48.46;101659.13;2082747;28;992;-49
2022/06/25 03:09:25;;;;;;;;;;;;;;;23.01;48.92;101663.66;2083269;28;824;-49
2022/06/25 03:10:25;;;;;;;;;;;;;;;23.02;48.41;101664.53;2083244;28;839;-49
2022/06/25 03:11:25;;;;;;;;;;;;;;;23.01;49.05;101660.06;2083230;28;1036;-49
2022/06/25 03:12:26;;;;;;;;;;;;;;;23.00;49.35;101663.69;2083251;28;683;-49
2022/06/25 03:13:26;;;;;;;;;;;;;;;23.00;49.38;101663.69;2083273;28;748;-48
2022/06/25 03:14:26;;;;;;;;;;;;;;;22.98;49.49;101658.34;2083360;28;764;-49
2022/06/25 03:15:26;;;;;;;;;;;;;;;22.97;49.31;101658.38;2083224;28;815;-49
2022/06/25 03:16:27;;;;;;;;;;;;;;;22.95;49.77;101653.94;2083212;28;851;-48
2022/06/25 03:17:28;;;;;;;;;;;;;;;22.95;49.50;101659.34;2083237;28;748;-49
2022/06/25 03:18:28;;;;;;;;;;;;;;;22.95;49.31;101648.53;2083155;28;1956;-49
2022/06/25 03:19:28;;;;;;;;;;;;;;;22.94;49.32;101656.66;2083231;28;795;-49
2022/06/25 03:20:29;;;;;;;;;;;;;;;22.90;49.93;101658.59;2083197;28;772;-50
2022/06/25 03:21:29;;;;;;;;;;;;;;;22.90;49.85;101664.00;2083108;28;963;-48
2022/06/25 03:22:30;;;;;;;;;;;;;;;22.90;49.66;101655.88;2082881;28;989;-48
2022/06/25 03:23:30;;;;;;;;;;;;;;;22.89;49.37;101664.03;2082664;28;1000;-49
2022/06/25 03:24:30;;;;;;;;;;;;;;;22.91;48.61;101656.75;2083280;28;712;-48
2022/06/25 03:25:31;;;;;;;;;;;;;;;22.89;48.49;101662.22;2083111;28;1005;-49
2022/06/25 03:26:31;;;;;;;;;;;;;;;22.86;48.43;101653.31;2083181;28;834;-49
2022/06/25 03:27:31;;;;;;;;;;;;;;;22.84;48.18;101652.47;2083146;28;974;-49
2022/06/25 03:28:31;;;;;;;;;;;;;;;22.82;46.93;101660.63;2082980;28;1146;-49
2022/06/25 03:29:32;;;;;;;;;;;;;;;22.82;47.63;101660.63;2083180;28;985;-49
2022/06/25 03:30:32;;;;;;;;;;;;;;;22.82;47.16;101659.72;2083141;28;962;-49
2022/06/25 03:31:32;;;;;;;;;;;;;;;22.80;46.24;101660.66;2083154;28;756;-49
2022/06/25 03:32:32;;;;;;;;;;;;;;;22.81;46.50;101658.88;2083142;28;965;-50
2022/06/25 03:33:32;;;;;;;;;;;;;;;22.79;46.20;101667.00;2083176;28;833;-48
2022/06/25 03:34:32;;;;;;;;;;;;;;;22.79;45.96;101668.81;2083146;28;906;-48
2022/06/25 03:35:33;;;;;;;;;;;;;;;22.78;45.64;101667.94;2083134;28;982;-49
2022/06/25 03:36:33;;;;;;;;;;;;;;;22.78;45.39;101664.34;2074297;28;970;-49
2022/06/25 03:37:33;;;;;;;;;;;;;;;22.78;45.36;101672.47;2074325;28;811;-49
2022/06/25 03:38:33;;;;;;;;;;;;;;;22.78;44.69;101676.03;2073669;28;1973;-48
2022/06/25 03:39:34;;;;;;;;;;;;;;;22.77;44.22;101670.69;2074359;28;966;-50
2022/06/25 03:40:34;;;;;;;;;;;;;;;22.79;43.90;101667.00;2074251;28;761;-48
2022/06/25 03:41:37;;;;;;;;;;;;;;;22.79;44.29;101674.22;2074354;28;970;-49
2022/06/25 03:42:37;;;;;;;;;;;;;;;22.78;43.83;101667.94;2083101;28;834;-49
2022/06/25 03:43:37;;;;;;;;;;;;;;;22.79;43.73;101666.13;2083068;28;851;-48
2022/06/25 03:44:37;;;;;;;;;;;;;;;22.80;44.17;101676.00;2083082;28;978;-50
2022/06/25 03:45:38;;;;;;;;;;;;;;;22.80;43.79;101670.59;2083092;28;783;-50
2022/06/25 03:46:39;;;;;;;;;;;;;;;22.80;43.51;101676.88;2083067;28;770;-50
2022/06/25 03:47:40;;;;;;;;;;;;;;;22.81;43.61;101677.78;2083068;28;883;-49
2022/06/25 03:48:40;;;;;;;;;;;;;;;22.80;44.29;101674.16;2083054;28;788;-49
2022/06/25 03:49:40;;;;;;;;;;;;;;;22.80;44.12;101670.59;2083047;28;1012;-49
2022/06/25 03:50:40;;;;;;;;;;;;;;;22.80;44.28;101671.47;2083097;28;892;-50
2022/06/25 03:51:41;;;;;;;;;;;;;;;22.82;43.87;101673.25;2083060;28;848;-49
2022/06/25 03:52:41;;;;;;;;;;;;;;;22.81;43.68;101677.78;2083056;28;1022;-49
2022/06/25 03:53:41;;;;;;;;;;;;;;;22.82;44.65;101678.63;2082528;28;1186;-49
2022/06/25 03:54:41;;;;;;;;;;;;;;;22.82;44.18;101682.25;2083036;28;969;-49
2022/06/25 03:55:41;;;;;;;;;;;;;;;22.82;44.72;101675.94;2083067;28;749;-49
2022/06/25 03:56:41;;;;;;;;;;;;;;;22.82;44.09;101682.25;2083049;28;781;-49
2022/06/25 03:57:42;;;;;;;;;;;;;;;22.82;44.47;101679.53;2083044;28;851;-49
2022/06/25 03:58:42;;;;;;;;;;;;;;;22.84;44.74;101682.19;2082981;28;1890;-49
2022/06/25 03:59:42;;;;;;;;;;;;;;;22.81;44.97;101672.38;2082987;28;1021;-50
2022/06/25 04:00:42;;;;;;;;;;;;;;;22.83;44.46;101680.41;2083059;28;652;-50
2022/06/25 04:01:42;;;;;;;;;;;;;;;22.83;45.02;101675.91;2083028;28;879;-49
2022/06/25 04:02:43;;;;;;;;;;;;;;;23.56;43.35;101673.66;2083019;28;961;-49
2022/06/25 04:03:43;;;;;;;;;;;;;;;24.45;40.74;101676.06;2074195;28;785;-48
2022/06/25 04:04:43;;;;;;;;;;;;;;;25.02;39.44;101673.94;2074298;28;843;-51
2022/06/25 04:05:43;;;;;;;;;;;;;;;25.38;39.18;101667.06;2082934;28;871;-50
2022/06/25 04:06:45;;;;;;;;;;;;;;;25.81;38.24;101672.56;2083055;28;1048;-51
2022/06/25 04:07:45;;;;;;;;;;;;;;;26.14;37.24;101667.53;2074204;28;785;-51
2022/06/25 04:08:45;;;;;;;;;;;;;;;26.44;36.98;101674.38;2073711;28;1025;-50
2022/06/25 04:09:45;;;;;;;;;;;;;;;26.52;36.28;101674.91;2083055;28;997;-49
2022/06/25 04:10:46;;;;;;;;;;;;;;;26.63;36.18;101674.41;2082974;28;974;-49
2022/06/25 04:11:46;;;;;;;;;;;;;;;26.82;36.37;101668.16;2082998;28;799;-49
2022/06/25 04:12:46;;;;;;;;;;;;;;;26.99;36.24;101665.53;2082955;28;974;-49
2022/06/25 04:13:46;;;;;;;;;;;;;;;27.27;35.49;101664.16;2082961;28;785;-49
2022/06/25 04:14:46;;;;;;;;;;;;;;;27.48;35.22;101667.69;2082975;28;756;-50
2022/06/25 04:15:46;;;;;;;;;;;;;;;27.80;35.23;101670.63;2082956;28;1021;-49
2022/06/25 04:16:46;;;;;;;;;;;;;;;27.88;34.69;101663.91;2082953;28;1021;-49
2022/06/25 04:17:47;;;;;;;;;;;;;;;27.81;35.06;101664.22;2082972;28;785;-50
2022/06/25 04:18:47;;;;;;;;;;;;;;;27.76;34.28;101674.47;2082904;28;1937;-48
2022/06/25 04:19:47;;;;;;;;;;;;;;;28.27;34.27;101670.97;2082944;28;1020;-49
2022/06/25 04:20:47;;;;;;;;;;;;;;;28.44;33.76;101669.19;2082941;28;773;-49
2022/06/25 04:21:49;;;;;;;;;;;;;;;28.43;33.71;101665.56;2082996;28;779;-49
2022/06/25 04:22:49;;;;;;;;;;;;;;;28.42;33.73;101668.38;2083095;28;804;-49
2022/06/25 04:23:49;;;;;;;;;;;;;;;28.60;32.65;101672.81;2082428;28;982;-50
2022/06/25 04:24:49;;;;;;;;;;;;;;;28.35;33.17;101673.25;2082941;28;1164;-49
2022/06/25 04:25:49;;;;;;;;;;;;;;;28.56;32.71;101671.22;2082883;28;760;-50
2022/06/25 04:26:49;;;;;;;;;;;;;;;28.88;32.04;101670.41;2082952;28;836;-49
2022/06/25 04:29:08;;;;;;;;;;;;;;;29.22;30.58;101669.38;2082842;28;1061;-50
2022/06/25 04:30:09;;;;;;;;;;;;;;;28.87;31.52;101672.28;2082907;28;851;-49
2022/06/25 04:31:09;;;;;;;;;;;;;;;28.90;31.40;101671.22;2082887;28;852;-49
2022/06/25 04:32:09;;;;;;;;;;;;;;;28.93;31.39;101673.78;2082921;28;1025;-48
2022/06/25 04:33:09;;;;;;;;;;;;;;;28.84;31.11;101667.91;2082890;28;1022;-48
2022/06/25 04:34:09;;;;;;;;;;;;;;;28.90;30.88;101666.66;2083450;28;811;-49
2022/06/25 04:35:10;;;;;;;;;;;;;;;28.98;30.94;101671.66;2084409;28;890;-48
2022/06/25 04:36:10;;;;;;;;;;;;;;;29.08;30.75;101672.03;2084421;28;969;-49
2022/06/25 04:37:10;;;;;;;;;;;;;;;29.26;30.54;101665.50;2084371;28;1195;-48
2022/06/25 04:38:10;;;;;;;;;;;;;;;29.21;30.57;101674.94;2084531;28;823;-49
2022/06/25 04:39:10;;;;;;;;;;;;;;;29.42;30.20;101676.47;2083780;28;1914;-48
2022/06/25 04:40:11;;;;;;;;;;;;;;;29.24;30.31;101683.81;2084379;28;1048;-48
2022/06/25 04:41:11;;;;;;;;;;;;;;;29.06;30.70;101674.84;2084376;28;985;-48
2022/06/25 04:42:11;;;;;;;;;;;;;;;29.54;30.57;101668.50;2084371;28;1017;-50
2022/06/25 04:43:11;;;;;;;;;;;;;;;29.55;30.21;101673.00;2084353;28;851;-49
2022/06/25 04:44:12;;;;;;;;;;;;;;;29.55;29.95;101675.72;2084342;28;970;-49
2022/06/25 04:45:12;;;;;;;;;;;;;;;29.82;30.17;101672.31;2084374;28;756;-49
2022/06/25 04:46:13;;;;;;;;;;;;;;;29.76;29.82;101675.44;2084341;28;978;-49
2022/06/25 04:47:13;;;;;;;;;;;;;;;29.43;30.30;101671.88;2084338;28;768;-49
2022/06/25 04:48:13;;;;;;;;;;;;;;;29.46;30.22;101679.88;2084352;28;1033;-49
2022/06/25 04:49:15;;;;;;;;;;;;;;;29.56;30.72;101669.28;2084327;28;1037;-48
2022/06/25 04:50:15;;;;;;;;;;;;;;;29.64;29.92;101675.19;2084341;28;768;-48
2022/06/25 04:51:16;;;;;;;;;;;;;;;29.54;30.51;101679.41;2084294;28;970;-48
2022/06/25 04:52:16;;;;;;;;;;;;;;;29.98;30.05;101681.38;2084327;28;768;-48
2022/06/25 04:53:17;;;;;;;;;;;;;;;30.34;29.50;101675.59;2084344;28;1031;-49
2022/06/25 04:54:17;;;;;;;;;;;;;;;30.23;29.07;101679.88;2083710;28;1248;-50
2022/06/25 04:55:17;;;;;;;;;;;;;;;30.26;29.37;101687.00;2084268;28;808;-49
2022/06/25 04:56:18;;;;;;;;;;;;;;;30.21;29.48;101687.28;2084302;28;848;-50
2022/06/25 04:57:18;;;;;;;;;;;;;;;30.53;28.95;101687.13;2084262;28;1032;-48
2022/06/25 04:58:18;;;;;;;;;;;;;;;30.66;29.53;101683.63;2084185;28;1890;-50
2022/06/25 04:59:18;;;;;;;;;;;;;;;30.31;29.54;101691.19;2084256;28;875;-50
2022/06/25 05:00:18;;;;;;;;;;;;;;;30.06;29.81;101680.00;2084206;28;815;-48
2022/06/25 05:01:19;;;;;;;;;;;;;;;29.94;30.11;101679.78;2075342;28;1306;-50
2022/06/25 05:02:19;;;;;;;;;;;;;;;30.04;30.09;101688.31;2075471;28;772;-48
2022/06/25 05:03:19;;;;;;;;;;;;;;;30.13;29.67;101686.88;2084216;28;791;-48
2022/06/25 05:04:19;;;;;;;;;;;;;;;30.15;30.06;101680.34;2084312;28;1041;-50
2022/06/25 05:05:20;;;;;;;;;;;;;;;30.76;28.95;101680.22;2084196;28;1150;-48
2022/06/25 05:06:20;;;;;;;;;;;;;;;30.83;29.00;101693.50;2084197;28;886;-51
2022/06/25 05:07:21;;;;;;;;;;;;;;;30.34;29.59;101683.78;2084191;28;788;-49
2022/06/25 05:08:21;;;;;;;;;;;;;;;30.74;29.54;101690.38;2084190;28;982;-50
2022/06/25 05:09:21;;;;;;;;;;;;;;;30.84;29.34;101687.94;2083663;28;992;-49
2022/06/25 05:10:21;;;;;;;;;;;;;;;30.63;29.90;101681.09;2084159;28;859;-49
2022/06/25 05:11:21;;;;;;;;;;;;;;;31.03;29.13;101684.00;2084157;28;977;-49
2022/06/25 05:13:40;;;;;;;;;;;;;;;31.46;28.59;101677.56;2084185;28;653;-50
2022/06/25 05:14:40;;;;;;;;;;;;;;;31.45;28.57;101676.69;2084145;28;1021;-49
2022/06/25 05:15:42;;;;;;;;;;;;;;;30.85;29.25;101678.75;2084149;28;747;-49
2022/06/25 05:16:42;;;;;;;;;;;;;;;30.57;29.75;101682.34;2084093;28;833;-49
2022/06/25 05:17:42;;;;;;;;;;;;;;;30.59;29.79;101681.31;2084125;28;862;-49
2022/06/25 05:18:43;;;;;;;;;;;;;;;30.62;30.25;101677.50;2084017;28;1886;-49
2022/06/25 05:19:43;;;;;;;;;;;;;;;30.82;31.16;101678.94;2084235;28;755;-49
2022/06/25 05:20:43;;;;;;;;;;;;;;;30.93;30.72;101680.09;2084104;28;929;-49
2022/06/25 05:21:43;;;;;;;;;;;;;;;30.57;31.99;101676.88;2084070;28;837;-48
2022/06/25 05:22:44;;;;;;;;;;;;;;;30.22;32.67;101683.56;2084085;28;816;-50
2022/06/25 05:23:45;;;;;;;;;;;;;;;30.28;32.98;101680.47;2084063;28;772;-50
2022/06/25 05:24:45;;;;;;;;;;;;;;;30.64;32.29;101678.28;2083571;28;830;-49
2022/06/25 05:25:45;;;;;;;;;;;;;;;30.80;31.93;101680.91;2084071;28;1033;-48
2022/06/25 05:26:45;;;;;;;;;;;;;;;30.40;32.08;101683.41;2084071;28;970;-48
2022/06/25 05:27:45;;;;;;;;;;;;;;;30.40;32.59;101683.41;2084050;28;918;-48